createdAt,value
2018-08-17T00:02:02.416Z,12.53
2018-08-17T00:05:56.327Z,12.53
2018-08-17T00:09:50.268Z,11.90
2018-08-17T00:13:45.432Z,12.60
2018-08-17T00:17:39.486Z,12.23
2018-08-17T00:21:34.013Z,13.03
2018-08-17T00:25:27.950Z,13.17
2018-08-17T00:29:21.895Z,12.83
2018-08-17T00:33:15.817Z,13.28
2018-08-17T00:37:09.800Z,12.63
2018-08-17T00:41:04.357Z,12.17
2018-08-17T00:44:58.373Z,12.60
2018-08-17T00:48:52.295Z,12.40
2018-08-17T00:52:46.222Z,13.60
2018-08-17T00:56:40.202Z,13.20
2018-08-17T01:00:34.875Z,12.03
2018-08-17T01:04:28.833Z,13.07
2018-08-17T01:08:22.730Z,12.03
2018-08-17T01:12:16.701Z,11.80
2018-08-17T01:16:10.611Z,12.13
2018-08-17T01:20:06.019Z,11.70
2018-08-17T01:23:59.969Z,12.67
2018-08-17T01:27:53.918Z,11.60
2018-08-17T01:31:47.821Z,13.63
2018-08-17T01:35:41.774Z,12.63
2018-08-17T01:39:35.797Z,13.20
2018-08-17T01:43:29.774Z,14.13
2018-08-17T01:47:23.710Z,14.50
2018-08-17T01:51:17.620Z,14.23
2018-08-17T01:55:12.045Z,14.27
2018-08-17T01:59:08.463Z,13.90
2018-08-17T02:03:02.388Z,14.27
2018-08-17T02:06:56.427Z,15.73
2018-08-17T02:10:50.366Z,16.43
2018-08-17T02:14:44.424Z,15.87
2018-08-17T02:18:38.303Z,15.53
2018-08-17T02:22:32.301Z,15.90
2018-08-17T02:26:26.489Z,16.03
2018-08-17T02:30:20.458Z,15.43
2018-08-17T02:34:14.359Z,15.00
2018-08-17T02:38:08.349Z,14.73
2018-08-17T02:42:02.311Z,14.27
2018-08-17T02:45:56.375Z,13.20
2018-08-17T02:49:50.300Z,12.10
2018-08-17T02:53:44.183Z,11.37
2018-08-17T02:57:38.138Z,10.37
2018-08-17T03:01:32.122Z,9.60
2018-08-17T03:05:26.874Z,9.30
2018-08-17T03:09:20.955Z,9.07
2018-08-17T03:13:14.968Z,8.63
2018-08-17T03:17:08.879Z,8.13
2018-08-17T03:21:02.804Z,8.93
2018-08-17T03:24:56.763Z,8.77
2018-08-17T03:28:50.664Z,9.63
2018-08-17T03:32:44.895Z,9.03
2018-08-17T03:36:38.754Z,8.53
2018-08-17T03:40:32.715Z,7.87
2018-08-17T03:44:26.603Z,8.03
2018-08-17T03:48:20.610Z,7.83
2018-08-17T03:52:14.639Z,7.53
2018-08-17T03:56:08.610Z,6.83
2018-08-17T04:00:02.541Z,6.47
2018-08-17T04:03:56.464Z,6.30
2018-08-17T04:07:50.339Z,6.47
2018-08-17T04:11:44.382Z,6.47
2018-08-17T04:15:38.488Z,7.33
2018-08-17T04:19:32.263Z,6.80
2018-08-17T04:23:26.207Z,6.60
2018-08-17T04:27:20.082Z,7.27
2018-08-17T04:31:14.019Z,6.97
2018-08-17T04:35:07.986Z,7.33
2018-08-17T04:39:01.935Z,7.07
2018-08-17T04:42:55.875Z,7.37
2018-08-17T04:46:49.819Z,6.90
2018-08-17T04:50:43.727Z,6.37
2018-08-17T04:54:37.630Z,5.53
2018-08-17T04:58:31.739Z,5.83
2018-08-17T05:02:25.636Z,4.70
2018-08-17T05:06:19.599Z,4.40
2018-08-17T05:10:13.651Z,4.67
2018-08-17T05:14:07.623Z,5.83
2018-08-17T05:18:01.545Z,5.33
2018-08-17T05:21:55.487Z,6.63
2018-08-17T05:25:49.449Z,6.03
2018-08-17T05:29:43.425Z,6.73
2018-08-17T05:33:37.445Z,8.30
2018-08-17T05:37:31.359Z,8.23
2018-08-17T05:41:25.334Z,9.83
2018-08-17T05:45:19.470Z,9.77
2018-08-17T05:49:13.495Z,9.77
2018-08-17T05:53:07.418Z,7.70
2018-08-17T05:57:01.498Z,7.40
2018-08-17T06:00:55.765Z,4.95
2018-08-17T06:04:53.395Z,7.67
2018-08-17T06:08:48.643Z,9.00
2018-08-17T06:12:42.579Z,10.87
2018-08-17T06:16:36.485Z,12.30
2018-08-17T06:20:30.484Z,12.23
2018-08-17T06:24:24.482Z,11.80
2018-08-17T06:28:18.585Z,11.77
2018-08-17T06:32:12.727Z,13.30
2018-08-17T06:36:06.828Z,11.97
2018-08-17T06:40:00.767Z,12.07
2018-08-17T06:43:54.771Z,11.40
2018-08-17T06:47:48.780Z,10.87
2018-08-17T06:51:42.736Z,10.70
2018-08-17T06:55:37.055Z,10.00
2018-08-17T06:59:32.380Z,10.07
2018-08-17T07:03:26.426Z,9.73
2018-08-17T07:07:21.323Z,8.63
2018-08-17T07:11:15.312Z,7.70
2018-08-17T07:15:09.551Z,7.40
2018-08-17T07:19:03.578Z,6.58
2018-08-17T07:22:57.517Z,5.53
2018-08-17T07:26:51.555Z,5.63
2018-08-17T07:30:45.486Z,6.10
2018-08-17T07:34:39.527Z,9.13
2018-08-17T07:38:33.504Z,5.20
2018-08-17T07:42:27.706Z,5.53
2018-08-17T07:46:22.121Z,5.47
2018-08-17T07:50:17.522Z,5.13
2018-08-17T07:54:11.561Z,5.83
2018-08-17T07:58:05.607Z,5.47
2018-08-17T08:01:59.685Z,7.23
2018-08-17T08:05:53.649Z,7.43
2018-08-17T08:09:47.856Z,7.33
2018-08-17T08:13:41.854Z,6.40
2018-08-17T08:17:35.780Z,5.60
2018-08-17T08:21:30.037Z,6.40
2018-08-17T08:25:23.926Z,5.33
2018-08-17T08:29:17.922Z,5.90
2018-08-17T08:33:12.039Z,5.45
2018-08-17T08:37:05.974Z,5.70
2018-08-17T08:40:59.932Z,5.30
2018-08-17T08:44:53.895Z,5.10
2018-08-17T08:48:47.990Z,5.10
2018-08-17T08:52:41.834Z,5.77
2018-08-17T08:56:35.710Z,5.80
2018-08-17T09:00:29.643Z,5.90
2018-08-17T09:04:23.621Z,5.83
2018-08-17T09:08:17.692Z,5.60
2018-08-17T09:12:11.742Z,5.50
2018-08-17T09:16:05.719Z,7.07
2018-08-17T09:19:59.835Z,6.27
2018-08-17T09:23:53.849Z,6.47
2018-08-17T09:27:48.111Z,7.33
2018-08-17T09:31:42.090Z,7.17
2018-08-17T09:35:36.157Z,7.83
2018-08-17T09:39:30.200Z,8.17
2018-08-17T09:43:24.172Z,7.53
2018-08-17T09:47:18.256Z,8.78
2018-08-17T09:51:12.230Z,9.33
2018-08-17T09:55:06.238Z,9.33
2018-08-17T09:59:00.613Z,9.27
2018-08-17T10:03:00.599Z,9.03
2018-08-17T10:07:00.252Z,8.20
2018-08-17T10:17:27.858Z,6.73
2018-08-17T10:21:49.693Z,6.70
2018-08-17T10:25:53.813Z,6.53
2018-08-17T10:29:48.127Z,7.57
2018-08-17T10:33:42.158Z,7.67
2018-08-17T10:37:36.536Z,8.67
2018-08-17T10:41:30.588Z,8.80
2018-08-17T10:45:25.653Z,8.07
2018-08-17T10:49:19.772Z,7.77
2018-08-17T10:53:14.887Z,8.25
2018-08-17T10:57:08.907Z,6.77
2018-08-17T11:01:02.842Z,6.33
2018-08-17T11:04:57.055Z,5.70
2018-08-17T11:08:51.051Z,5.07
2018-08-17T11:12:48.891Z,6.03
2018-08-17T11:16:43.013Z,6.97
2018-08-17T11:20:37.014Z,6.80
2018-08-17T11:24:31.054Z,5.13
2018-08-17T11:28:25.227Z,4.27
2018-08-17T11:32:19.242Z,4.05
2018-08-17T11:36:17.043Z,3.67
2018-08-17T11:40:11.649Z,3.77
2018-08-17T11:44:10.614Z,3.50
2018-08-17T11:48:04.655Z,3.67
2018-08-17T11:51:59.212Z,2.90
2018-08-17T11:55:53.535Z,7.03
2018-08-17T11:59:52.748Z,2.53
2018-08-17T12:03:46.912Z,3.30
2018-08-17T12:07:42.989Z,3.57
2018-08-17T12:11:37.000Z,2.50
2018-08-17T12:15:31.747Z,3.50
2018-08-17T12:19:25.724Z,2.40
2018-08-17T12:23:19.751Z,2.10
2018-08-17T12:27:13.777Z,2.40
2018-08-17T12:31:07.815Z,3.03
2018-08-17T12:35:01.912Z,2.20
2018-08-17T12:38:56.074Z,2.80
2018-08-17T12:42:50.094Z,3.10
2018-08-17T12:46:44.068Z,2.70
2018-08-17T12:50:38.165Z,2.77
2018-08-17T12:54:33.011Z,3.10
2018-08-17T12:58:27.016Z,3.45
2018-08-17T13:02:20.978Z,2.90
2018-08-17T13:06:14.914Z,2.80
2018-08-17T13:10:08.995Z,3.27
2018-08-17T13:14:07.335Z,3.50
2018-08-17T13:18:09.918Z,3.53
2018-08-17T13:22:03.964Z,3.40
2018-08-17T13:25:57.900Z,3.20
2018-08-17T13:29:51.946Z,2.93
2018-08-17T13:33:45.964Z,2.87
2018-08-17T13:37:40.115Z,2.43
2018-08-17T13:41:34.528Z,2.40
2018-08-17T13:45:29.422Z,2.30
2018-08-17T13:49:23.586Z,2.72
2018-08-17T13:53:17.535Z,2.52
2018-08-17T13:57:11.597Z,3.03
2018-08-17T14:01:05.670Z,2.53
2018-08-17T14:04:59.757Z,2.80
2018-08-17T14:08:53.930Z,2.43
2018-08-17T14:12:47.944Z,2.63
2018-08-17T14:16:42.234Z,2.70
2018-08-17T14:20:36.828Z,2.40
2018-08-17T14:24:31.949Z,2.60
2018-08-17T14:28:26.214Z,2.97
2018-08-17T14:32:20.664Z,2.55
2018-08-17T14:36:15.189Z,2.83
2018-08-17T14:40:10.392Z,2.60
2018-08-17T14:44:04.815Z,2.33
2018-08-17T14:47:58.860Z,3.00
2018-08-17T14:51:53.013Z,2.73
2018-08-17T14:55:47.519Z,2.67
2018-08-17T14:59:41.903Z,2.83
2018-08-17T15:03:36.019Z,3.10
2018-08-17T15:07:30.628Z,2.27
2018-08-17T15:11:24.648Z,2.43
2018-08-17T15:15:19.435Z,2.37
2018-08-17T15:19:18.111Z,2.57
2018-08-17T15:23:12.140Z,2.07
2018-08-17T15:27:06.188Z,2.10
2018-08-17T15:31:00.213Z,2.27
2018-08-17T15:34:54.276Z,1.90
2018-08-17T15:38:48.630Z,1.70
2018-08-17T15:42:42.647Z,1.83
2018-08-17T15:46:36.704Z,2.13
2018-08-17T15:50:30.703Z,1.90
2018-08-17T15:54:24.721Z,1.60
2018-08-17T15:58:19.012Z,1.73
2018-08-17T16:02:13.064Z,1.73
2018-08-17T16:06:07.009Z,1.73
2018-08-17T16:10:01.009Z,1.93
2018-08-17T16:13:56.030Z,2.10
2018-08-17T16:17:50.063Z,1.77
2018-08-17T16:21:44.058Z,2.97
2018-08-17T16:25:38.227Z,2.57
2018-08-17T16:29:32.430Z,2.00
2018-08-17T16:33:26.735Z,1.77
2018-08-17T16:37:21.019Z,1.60
2018-08-17T16:41:15.005Z,2.17
2018-08-17T16:45:09.398Z,1.60
2018-08-17T16:49:03.375Z,2.07
2018-08-17T16:52:57.542Z,1.60
2018-08-17T16:56:52.573Z,1.90
2018-08-17T17:00:47.067Z,1.60
2018-08-17T17:04:43.183Z,1.57
2018-08-17T17:08:37.416Z,1.57
2018-08-17T17:12:31.882Z,1.60
2018-08-17T17:16:39.043Z,1.60
2018-08-17T17:20:34.345Z,1.77
2018-08-17T17:24:28.330Z,1.80
2018-08-17T17:28:22.985Z,1.50
2018-08-17T17:32:16.865Z,1.90
2018-08-17T17:36:10.928Z,1.87
2018-08-17T17:40:05.473Z,1.70
2018-08-17T17:43:59.424Z,1.80
2018-08-17T17:47:53.494Z,1.90
2018-08-17T17:51:47.515Z,1.67
2018-08-17T17:55:46.676Z,1.75
2018-08-17T17:59:55.029Z,1.97
2018-08-17T18:03:48.968Z,1.80
2018-08-17T18:07:47.234Z,1.97
2018-08-17T18:11:41.226Z,2.23
2018-08-17T18:15:35.253Z,2.17
2018-08-17T18:19:29.218Z,2.37
2018-08-17T18:23:23.330Z,2.60
2018-08-17T18:27:17.339Z,1.90
2018-08-17T18:31:11.683Z,1.60
2018-08-17T18:35:05.739Z,1.60
2018-08-17T18:38:59.841Z,1.90
2018-08-17T18:42:53.990Z,2.13
2018-08-17T18:46:48.035Z,1.87
2018-08-17T18:50:41.980Z,1.70
2018-08-17T18:54:35.932Z,1.30
2018-08-17T18:58:29.894Z,2.00
2018-08-17T19:02:23.939Z,2.17
2018-08-17T19:06:17.892Z,2.10
2018-08-17T19:10:11.933Z,2.00
2018-08-17T19:14:05.923Z,1.93
2018-08-17T19:17:59.870Z,1.90
2018-08-17T19:21:53.906Z,2.50
2018-08-17T19:25:47.967Z,2.10
2018-08-17T19:29:41.914Z,2.10
2018-08-17T19:33:35.914Z,2.10
2018-08-17T19:37:29.840Z,2.57
2018-08-17T19:41:24.228Z,2.47
2018-08-17T19:45:18.726Z,2.20
2018-08-17T19:49:13.054Z,2.47
2018-08-17T19:53:07.246Z,2.73
2018-08-17T19:57:01.187Z,3.53
2018-08-17T20:00:55.127Z,3.30
2018-08-17T20:04:49.116Z,3.00
2018-08-17T20:08:43.104Z,3.10
2018-08-17T20:12:37.017Z,3.80
2018-08-17T20:16:30.927Z,2.90
2018-08-17T20:20:24.948Z,3.10
2018-08-17T20:24:18.998Z,3.00
2018-08-17T20:28:12.947Z,2.87
2018-08-17T20:32:06.968Z,3.40
2018-08-17T20:36:00.925Z,4.00
2018-08-17T20:39:54.929Z,2.80
2018-08-17T20:43:49.056Z,2.92
2018-08-17T20:47:43.446Z,3.30
2018-08-17T20:51:40.563Z,3.17
2018-08-17T20:55:34.491Z,4.30
2018-08-17T20:59:28.413Z,4.50
2018-08-17T21:03:22.528Z,4.23
2018-08-17T21:07:24.628Z,3.53
2018-08-17T21:11:21.749Z,3.10
2018-08-17T21:15:15.842Z,3.60
2018-08-17T21:19:09.883Z,3.93
2018-08-17T21:23:04.025Z,3.63
2018-08-17T21:26:58.018Z,4.00
2018-08-17T21:30:51.987Z,4.00
2018-08-17T21:34:45.952Z,4.55
2018-08-17T21:38:40.191Z,4.33
2018-08-17T21:42:34.902Z,3.58
2018-08-17T21:46:28.907Z,5.00
2018-08-17T21:50:22.869Z,4.33
2018-08-17T21:54:18.110Z,4.10
2018-08-17T21:58:12.094Z,3.80
2018-08-17T22:02:08.456Z,3.70
2018-08-17T22:06:02.406Z,3.87
2018-08-17T22:09:56.615Z,4.47
2018-08-17T22:13:50.622Z,4.90
2018-08-17T22:17:44.595Z,4.00
2018-08-17T22:21:38.671Z,3.97
2018-08-17T22:25:32.660Z,4.20
2018-08-17T22:29:26.696Z,4.37
2018-08-17T22:33:20.727Z,4.20
2018-08-17T22:37:14.730Z,3.80
2018-08-17T22:41:08.664Z,4.03
2018-08-17T22:45:02.791Z,4.07
2018-08-17T22:48:56.915Z,4.10
2018-08-17T22:52:50.787Z,3.57
2018-08-17T22:56:44.740Z,3.80
2018-08-17T23:00:38.674Z,3.23
2018-08-17T23:04:32.576Z,3.85
2018-08-17T23:08:26.480Z,3.50
2018-08-17T23:12:20.499Z,3.90
2018-08-17T23:16:14.451Z,3.87
2018-08-17T23:20:08.704Z,4.17
2018-08-17T23:24:02.795Z,4.10
2018-08-17T23:27:56.766Z,4.50
2018-08-17T23:31:50.796Z,4.57
2018-08-17T23:35:44.759Z,4.40
2018-08-17T23:39:38.773Z,4.23
2018-08-17T23:43:32.763Z,4.20
2018-08-17T23:47:26.659Z,4.13
2018-08-17T23:51:20.752Z,4.20
2018-08-17T23:55:16.584Z,4.00
2018-08-17T23:59:10.614Z,4.47
